Terminal Aerodrome Forecast
Issued by NWS

Home | Current Version | Previous Version | Text Only | Print | Product List | Glossary On
Versions: 1 2 3 4 5 6 7 8 9 10 11 12 13 14 15
000
FTUS42 KMLB 300529
TAFFPR
TAF
KFPR 300529Z 3006/0106 24003KT P6SM BKN035 OVC200
     FM301400 27006KT P6SM SCT025 SCT150 BKN250
     FM301800 31007KT P6SM VCSH SCT025 BKN120 BKN200
     FM010300 21003KT P6SM FEW020 BKN200=

USA.gov is the U.S. government's official web portal to all federal, state and local government web resources and services.